sensor_id;sensor_type;location;lat;lon;timestamp;temperature;humidity
26270;DHT22;15937;50.612;6.656;2022-07-10T00:01:03;14.00;99.90
26270;DHT22;15937;50.612;6.656;2022-07-10T00:05:05;14.00;99.90
26270;DHT22;15937;50.612;6.656;2022-07-10T00:09:07;13.90;99.90
26270;DHT22;15937;50.612;6.656;2022-07-10T00:13:09;13.80;99.90
26270;DHT22;15937;50.612;6.656;2022-07-10T00:17:11;13.70;99.90
26270;DHT22;15937;50.612;6.656;2022-07-10T00:21:12;13.60;99.90
26270;DHT22;15937;50.612;6.656;2022-07-10T00:25:14;13.40;99.90
26270;DHT22;15937;50.612;6.656;2022-07-10T00:29:16;13.30;99.90
26270;DHT22;15937;50.612;6.656;2022-07-10T00:33:18;13.20;99.90
26270;DHT22;15937;50.612;6.656;2022-07-10T00:37:19;13.10;99.90
26270;DHT22;15937;50.612;6.656;2022-07-10T00:41:24;13.10;99.90
26270;DHT22;15937;50.612;6.656;2022-07-10T00:45:26;12.90;99.90
26270;DHT22;15937;50.612;6.656;2022-07-10T00:49:28;12.90;99.90
26270;DHT22;15937;50.612;6.656;2022-07-10T00:53:29;12.80;99.90
26270;DHT22;15937;50.612;6.656;2022-07-10T00:57:31;12.90;99.90
26270;DHT22;15937;50.612;6.656;2022-07-10T01:01:34;12.90;99.90
26270;DHT22;15937;50.612;6.656;2022-07-10T01:05:37;12.80;99.90
26270;DHT22;15937;50.612;6.656;2022-07-10T01:09:38;12.70;99.90
26270;DHT22;15937;50.612;6.656;2022-07-10T01:13:42;12.70;99.90
26270;DHT22;15937;50.612;6.656;2022-07-10T01:17:44;12.70;99.90
26270;DHT22;15937;50.612;6.656;2022-07-10T01:21:46;12.80;99.90
26270;DHT22;15937;50.612;6.656;2022-07-10T01:25:49;12.80;99.90
26270;DHT22;15937;50.612;6.656;2022-07-10T01:29:52;12.70;99.90
26270;DHT22;15937;50.612;6.656;2022-07-10T01:33:55;12.60;99.90
26270;DHT22;15937;50.612;6.656;2022-07-10T01:37:57;12.60;99.90
26270;DHT22;15937;50.612;6.656;2022-07-10T01:41:59;12.60;99.90
26270;DHT22;15937;50.612;6.656;2022-07-10T01:46:01;12.60;99.90
26270;DHT22;15937;50.612;6.656;2022-07-10T01:50:05;12.60;99.90
26270;DHT22;15937;50.612;6.656;2022-07-10T01:54:07;12.50;99.90
26270;DHT22;15937;50.612;6.656;2022-07-10T01:58:08;12.50;99.90
26270;DHT22;15937;50.612;6.656;2022-07-10T02:02:10;12.40;99.90
26270;DHT22;15937;50.612;6.656;2022-07-10T02:06:13;12.50;99.90
26270;DHT22;15937;50.612;6.656;2022-07-10T02:10:14;12.40;99.90
26270;DHT22;15937;50.612;6.656;2022-07-10T02:14:16;12.40;99.90
26270;DHT22;15937;50.612;6.656;2022-07-10T02:18:18;12.60;99.90
26270;DHT22;15937;50.612;6.656;2022-07-10T02:22:19;12.70;99.90
26270;DHT22;15937;50.612;6.656;2022-07-10T02:26:21;12.70;99.90
26270;DHT22;15937;50.612;6.656;2022-07-10T02:30:23;12.50;99.90
26270;DHT22;15937;50.612;6.656;2022-07-10T02:34:25;12.70;99.90
26270;DHT22;15937;50.612;6.656;2022-07-10T02:38:27;12.70;99.90
26270;DHT22;15937;50.612;6.656;2022-07-10T02:42:29;12.60;99.90
26270;DHT22;15937;50.612;6.656;2022-07-10T02:46:31;12.60;99.90
26270;DHT22;15937;50.612;6.656;2022-07-10T02:50:32;12.60;99.90
26270;DHT22;15937;50.612;6.656;2022-07-10T02:54:34;12.70;99.90
26270;DHT22;15937;50.612;6.656;2022-07-10T02:58:37;12.70;99.90
26270;DHT22;15937;50.612;6.656;2022-07-10T03:02:40;12.60;99.90
26270;DHT22;15937;50.612;6.656;2022-07-10T03:06:42;12.70;99.90
26270;DHT22;15937;50.612;6.656;2022-07-10T03:10:44;12.70;99.90
26270;DHT22;15937;50.612;6.656;2022-07-10T03:14:45;12.70;99.90
26270;DHT22;15937;50.612;6.656;2022-07-10T03:18:47;12.80;99.90
26270;DHT22;15937;50.612;6.656;2022-07-10T03:22:49;12.70;99.90
26270;DHT22;15937;50.612;6.656;2022-07-10T03:26:51;12.70;99.90
26270;DHT22;15937;50.612;6.656;2022-07-10T03:30:53;12.70;99.90
26270;DHT22;15937;50.612;6.656;2022-07-10T03:34:56;12.80;99.90
26270;DHT22;15937;50.612;6.656;2022-07-10T03:38:57;12.70;99.90
26270;DHT22;15937;50.612;6.656;2022-07-10T03:42:59;12.70;99.90
26270;DHT22;15937;50.612;6.656;2022-07-10T03:47:01;12.70;99.90
26270;DHT22;15937;50.612;6.656;2022-07-10T03:51:03;12.70;99.90
26270;DHT22;15937;50.612;6.656;2022-07-10T03:55:05;12.60;99.90
26270;DHT22;15937;50.612;6.656;2022-07-10T03:59:07;12.60;99.90
26270;DHT22;15937;50.612;6.656;2022-07-10T04:03:08;12.60;99.90
26270;DHT22;15937;50.612;6.656;2022-07-10T04:07:11;12.70;99.90
26270;DHT22;15937;50.612;6.656;2022-07-10T04:11:14;12.70;99.90
26270;DHT22;15937;50.612;6.656;2022-07-10T04:15:16;12.70;99.90
26270;DHT22;15937;50.612;6.656;2022-07-10T04:19:18;12.60;99.90
26270;DHT22;15937;50.612;6.656;2022-07-10T04:23:20;12.70;99.90
26270;DHT22;15937;50.612;6.656;2022-07-10T04:27:22;12.60;99.90
26270;DHT22;15937;50.612;6.656;2022-07-10T04:31:24;12.70;99.90
26270;DHT22;15937;50.612;6.656;2022-07-10T04:35:26;12.80;99.90
26270;DHT22;15937;50.612;6.656;2022-07-10T04:39:27;12.70;99.90
26270;DHT22;15937;50.612;6.656;2022-07-10T04:43:30;12.80;99.90
26270;DHT22;15937;50.612;6.656;2022-07-10T04:47:32;12.90;99.90
26270;DHT22;15937;50.612;6.656;2022-07-10T04:51:34;12.90;99.90
26270;DHT22;15937;50.612;6.656;2022-07-10T04:55:36;13.00;99.90
26270;DHT22;15937;50.612;6.656;2022-07-10T04:59:37;13.10;99.90
26270;DHT22;15937;50.612;6.656;2022-07-10T05:03:39;13.30;99.90
26270;DHT22;15937;50.612;6.656;2022-07-10T05:07:41;13.10;99.90
26270;DHT22;15937;50.612;6.656;2022-07-10T05:11:43;13.10;99.90
26270;DHT22;15937;50.612;6.656;2022-07-10T05:15:46;13.20;99.90
26270;DHT22;15937;50.612;6.656;2022-07-10T05:19:49;13.50;99.90
26270;DHT22;15937;50.612;6.656;2022-07-10T05:23:53;13.80;99.90
26270;DHT22;15937;50.612;6.656;2022-07-10T05:27:54;13.80;99.90
26270;DHT22;15937;50.612;6.656;2022-07-10T05:31:56;13.90;99.90
26270;DHT22;15937;50.612;6.656;2022-07-10T05:35:58;13.60;99.90
26270;DHT22;15937;50.612;6.656;2022-07-10T05:39:59;13.80;99.90
26270;DHT22;15937;50.612;6.656;2022-07-10T05:44:02;13.80;99.90
26270;DHT22;15937;50.612;6.656;2022-07-10T05:48:04;13.80;99.90
26270;DHT22;15937;50.612;6.656;2022-07-10T05:52:06;13.80;99.90
26270;DHT22;15937;50.612;6.656;2022-07-10T05:56:08;13.70;99.90
26270;DHT22;15937;50.612;6.656;2022-07-10T06:00:10;13.80;99.90
26270;DHT22;15937;50.612;6.656;2022-07-10T06:04:12;13.80;99.90
26270;DHT22;15937;50.612;6.656;2022-07-10T06:08:14;14.00;99.90
26270;DHT22;15937;50.612;6.656;2022-07-10T06:12:15;13.90;99.90
26270;DHT22;15937;50.612;6.656;2022-07-10T06:16:17;14.00;99.90
26270;DHT22;15937;50.612;6.656;2022-07-10T06:20:20;14.00;99.90
26270;DHT22;15937;50.612;6.656;2022-07-10T06:24:22;14.00;99.90
26270;DHT22;15937;50.612;6.656;2022-07-10T06:28:23;14.10;99.90
26270;DHT22;15937;50.612;6.656;2022-07-10T06:32:26;14.30;99.90
26270;DHT22;15937;50.612;6.656;2022-07-10T06:36:28;14.20;99.90
26270;DHT22;15937;50.612;6.656;2022-07-10T06:40:38;14.30;99.90
26270;DHT22;15937;50.612;6.656;2022-07-10T06:44:41;14.80;99.90
26270;DHT22;15937;50.612;6.656;2022-07-10T06:48:43;14.90;99.90
26270;DHT22;15937;50.612;6.656;2022-07-10T06:52:45;15.00;99.90
26270;DHT22;15937;50.612;6.656;2022-07-10T06:57:00;14.90;99.90
26270;DHT22;15937;50.612;6.656;2022-07-10T07:01:41;14.80;99.90
26270;DHT22;15937;50.612;6.656;2022-07-10T07:05:43;14.60;99.90
26270;DHT22;15937;50.612;6.656;2022-07-10T07:09:45;14.50;99.90
26270;DHT22;15937;50.612;6.656;2022-07-10T07:13:51;14.30;99.90
26270;DHT22;15937;50.612;6.656;2022-07-10T07:17:54;14.30;99.90
26270;DHT22;15937;50.612;6.656;2022-07-10T07:22:09;14.20;99.90
26270;DHT22;15937;50.612;6.656;2022-07-10T07:26:30;14.20;99.90
26270;DHT22;15937;50.612;6.656;2022-07-10T07:30:31;14.20;99.90
26270;DHT22;15937;50.612;6.656;2022-07-10T07:34:33;14.50;99.90
26270;DHT22;15937;50.612;6.656;2022-07-10T07:38:35;14.80;99.90
26270;DHT22;15937;50.612;6.656;2022-07-10T07:42:42;14.90;99.90
26270;DHT22;15937;50.612;6.656;2022-07-10T07:46:44;14.90;99.90
26270;DHT22;15937;50.612;6.656;2022-07-10T07:50:47;14.70;99.90
26270;DHT22;15937;50.612;6.656;2022-07-10T07:54:49;14.60;99.90
26270;DHT22;15937;50.612;6.656;2022-07-10T07:58:52;14.70;99.90
26270;DHT22;15937;50.612;6.656;2022-07-10T08:02:57;14.60;99.90
26270;DHT22;15937;50.612;6.656;2022-07-10T08:06:59;14.90;99.90
26270;DHT22;15937;50.612;6.656;2022-07-10T08:11:02;14.90;99.90
26270;DHT22;15937;50.612;6.656;2022-07-10T08:15:07;15.10;99.90
26270;DHT22;15937;50.612;6.656;2022-07-10T08:19:09;15.20;99.90
26270;DHT22;15937;50.612;6.656;2022-07-10T08:23:11;15.00;99.90
26270;DHT22;15937;50.612;6.656;2022-07-10T08:27:13;15.20;99.90
26270;DHT22;15937;50.612;6.656;2022-07-10T08:31:17;15.20;99.90
26270;DHT22;15937;50.612;6.656;2022-07-10T08:35:19;15.60;99.90
26270;DHT22;15937;50.612;6.656;2022-07-10T08:39:21;15.70;99.90
26270;DHT22;15937;50.612;6.656;2022-07-10T08:43:25;15.60;99.90
26270;DHT22;15937;50.612;6.656;2022-07-10T08:47:27;15.60;99.90
26270;DHT22;15937;50.612;6.656;2022-07-10T08:56:05;15.80;99.90
26270;DHT22;15937;50.612;6.656;2022-07-10T09:00:07;16.40;99.90
26270;DHT22;15937;50.612;6.656;2022-07-10T09:04:23;16.30;99.90
26270;DHT22;15937;50.612;6.656;2022-07-10T09:08:28;16.30;99.90
26270;DHT22;15937;50.612;6.656;2022-07-10T09:16:50;16.10;99.90
26270;DHT22;15937;50.612;6.656;2022-07-10T09:20:52;16.10;99.90
26270;DHT22;15937;50.612;6.656;2022-07-10T09:24:54;16.10;99.90
26270;DHT22;15937;50.612;6.656;2022-07-10T09:29:12;16.10;99.90
26270;DHT22;15937;50.612;6.656;2022-07-10T09:33:16;16.10;99.90
26270;DHT22;15937;50.612;6.656;2022-07-10T09:41:30;16.10;99.90
26270;DHT22;15937;50.612;6.656;2022-07-10T09:45:33;16.20;99.90
26270;DHT22;15937;50.612;6.656;2022-07-10T09:49:36;16.30;99.90
26270;DHT22;15937;50.612;6.656;2022-07-10T09:53:40;16.20;99.90
26270;DHT22;15937;50.612;6.656;2022-07-10T09:57:43;16.00;99.90
26270;DHT22;15937;50.612;6.656;2022-07-10T10:01:51;16.10;99.90
26270;DHT22;15937;50.612;6.656;2022-07-10T10:05:55;16.10;99.90
26270;DHT22;15937;50.612;6.656;2022-07-10T10:09:59;16.30;99.90
26270;DHT22;15937;50.612;6.656;2022-07-10T10:14:03;16.20;99.90
26270;DHT22;15937;50.612;6.656;2022-07-10T10:18:07;16.20;99.90
26270;DHT22;15937;50.612;6.656;2022-07-10T10:22:12;16.30;99.90
26270;DHT22;15937;50.612;6.656;2022-07-10T10:26:21;16.40;99.90
26270;DHT22;15937;50.612;6.656;2022-07-10T10:30:23;16.50;99.90
26270;DHT22;15937;50.612;6.656;2022-07-10T10:34:39;16.50;99.90
26270;DHT22;15937;50.612;6.656;2022-07-10T10:42:55;16.40;99.90
26270;DHT22;15937;50.612;6.656;2022-07-10T10:46:59;16.50;99.90
26270;DHT22;15937;50.612;6.656;2022-07-10T10:51:08;16.50;99.90
26270;DHT22;15937;50.612;6.656;2022-07-10T10:55:10;16.60;99.90
26270;DHT22;15937;50.612;6.656;2022-07-10T10:59:54;16.50;99.90
26270;DHT22;15937;50.612;6.656;2022-07-10T11:08:14;16.60;99.90
26270;DHT22;15937;50.612;6.656;2022-07-10T11:12:59;16.60;99.90
26270;DHT22;15937;50.612;6.656;2022-07-10T11:17:02;16.60;99.90
26270;DHT22;15937;50.612;6.656;2022-07-10T11:21:05;16.50;99.90
26270;DHT22;15937;50.612;6.656;2022-07-10T11:29:25;16.60;99.90
26270;DHT22;15937;50.612;6.656;2022-07-10T11:33:27;16.70;99.90
26270;DHT22;15937;50.612;6.656;2022-07-10T11:37:29;16.80;99.90
26270;DHT22;15937;50.612;6.656;2022-07-10T11:41:33;16.80;99.90
26270;DHT22;15937;50.612;6.656;2022-07-10T11:45:34;16.80;99.90
26270;DHT22;15937;50.612;6.656;2022-07-10T11:49:49;16.90;99.90
26270;DHT22;15937;50.612;6.656;2022-07-10T11:54:13;17.20;99.90
26270;DHT22;15937;50.612;6.656;2022-07-10T11:58:18;17.20;99.90
26270;DHT22;15937;50.612;6.656;2022-07-10T12:02:23;17.10;99.90
26270;DHT22;15937;50.612;6.656;2022-07-10T12:06:26;17.30;99.90
26270;DHT22;15937;50.612;6.656;2022-07-10T12:10:31;17.00;99.90
26270;DHT22;15937;50.612;6.656;2022-07-10T12:14:38;17.20;99.90
26270;DHT22;15937;50.612;6.656;2022-07-10T12:18:42;17.20;99.90
26270;DHT22;15937;50.612;6.656;2022-07-10T12:22:53;17.10;99.90
26270;DHT22;15937;50.612;6.656;2022-07-10T12:26:59;17.30;99.90
26270;DHT22;15937;50.612;6.656;2022-07-10T12:31:00;17.20;99.90
26270;DHT22;15937;50.612;6.656;2022-07-10T12:35:03;17.10;99.90
26270;DHT22;15937;50.612;6.656;2022-07-10T12:39:05;17.20;99.90
26270;DHT22;15937;50.612;6.656;2022-07-10T12:43:07;17.20;99.90
26270;DHT22;15937;50.612;6.656;2022-07-10T12:47:13;17.50;99.90
26270;DHT22;15937;50.612;6.656;2022-07-10T12:55:23;18.00;99.90
26270;DHT22;15937;50.612;6.656;2022-07-10T12:59:27;17.90;99.90
26270;DHT22;15937;50.612;6.656;2022-07-10T13:03:33;18.10;99.90
26270;DHT22;15937;50.612;6.656;2022-07-10T13:07:37;18.00;99.90
26270;DHT22;15937;50.612;6.656;2022-07-10T13:11:44;18.20;99.90
26270;DHT22;15937;50.612;6.656;2022-07-10T13:15:49;18.00;99.90
26270;DHT22;15937;50.612;6.656;2022-07-10T13:19:52;18.00;99.90
26270;DHT22;15937;50.612;6.656;2022-07-10T13:23:55;18.00;99.90
26270;DHT22;15937;50.612;6.656;2022-07-10T13:28:10;18.10;99.90
26270;DHT22;15937;50.612;6.656;2022-07-10T13:32:15;18.00;99.90
26270;DHT22;15937;50.612;6.656;2022-07-10T13:36:22;17.80;99.90
26270;DHT22;15937;50.612;6.656;2022-07-10T13:40:24;17.90;99.90
26270;DHT22;15937;50.612;6.656;2022-07-10T13:44:26;17.80;99.90
26270;DHT22;15937;50.612;6.656;2022-07-10T13:48:32;17.60;99.90
26270;DHT22;15937;50.612;6.656;2022-07-10T13:52:36;17.90;99.90
26270;DHT22;15937;50.612;6.656;2022-07-10T13:56:40;17.70;99.90
26270;DHT22;15937;50.612;6.656;2022-07-10T14:00:45;17.60;99.90
26270;DHT22;15937;50.612;6.656;2022-07-10T14:04:47;17.60;99.90
26270;DHT22;15937;50.612;6.656;2022-07-10T14:08:49;17.80;99.90
26270;DHT22;15937;50.612;6.656;2022-07-10T14:13:00;17.90;99.90
26270;DHT22;15937;50.612;6.656;2022-07-10T14:17:17;17.90;99.90
26270;DHT22;15937;50.612;6.656;2022-07-10T14:21:20;18.20;99.90
26270;DHT22;15937;50.612;6.656;2022-07-10T14:25:37;18.30;99.90
26270;DHT22;15937;50.612;6.656;2022-07-10T14:29:39;18.10;99.90
26270;DHT22;15937;50.612;6.656;2022-07-10T14:33:41;18.20;99.90
26270;DHT22;15937;50.612;6.656;2022-07-10T14:37:43;18.30;99.90
26270;DHT22;15937;50.612;6.656;2022-07-10T14:41:45;18.20;99.90
26270;DHT22;15937;50.612;6.656;2022-07-10T14:45:47;18.10;99.90
26270;DHT22;15937;50.612;6.656;2022-07-10T14:49:58;18.10;99.90
26270;DHT22;15937;50.612;6.656;2022-07-10T14:54:00;18.10;99.90
26270;DHT22;15937;50.612;6.656;2022-07-10T14:58:01;18.10;99.90
26270;DHT22;15937;50.612;6.656;2022-07-10T15:02:06;18.10;99.90
26270;DHT22;15937;50.612;6.656;2022-07-10T15:06:09;18.00;99.90
26270;DHT22;15937;50.612;6.656;2022-07-10T15:10:11;18.20;99.90
26270;DHT22;15937;50.612;6.656;2022-07-10T15:14:14;18.40;99.90
26270;DHT22;15937;50.612;6.656;2022-07-10T15:18:15;18.90;99.90
26270;DHT22;15937;50.612;6.656;2022-07-10T15:22:17;19.30;99.90
26270;DHT22;15937;50.612;6.656;2022-07-10T15:26:19;19.10;99.90
26270;DHT22;15937;50.612;6.656;2022-07-10T15:30:21;18.90;99.90
26270;DHT22;15937;50.612;6.656;2022-07-10T15:34:23;19.00;99.90
26270;DHT22;15937;50.612;6.656;2022-07-10T15:38:25;18.80;99.90
26270;DHT22;15937;50.612;6.656;2022-07-10T15:42:27;18.70;99.90
26270;DHT22;15937;50.612;6.656;2022-07-10T15:46:28;18.60;99.90
26270;DHT22;15937;50.612;6.656;2022-07-10T15:50:30;18.80;99.90
26270;DHT22;15937;50.612;6.656;2022-07-10T15:54:35;18.70;99.90
26270;DHT22;15937;50.612;6.656;2022-07-10T15:58:37;18.70;99.90
26270;DHT22;15937;50.612;6.656;2022-07-10T16:02:39;18.80;99.90
26270;DHT22;15937;50.612;6.656;2022-07-10T16:06:41;18.60;99.90
26270;DHT22;15937;50.612;6.656;2022-07-10T16:10:43;18.60;99.90
26270;DHT22;15937;50.612;6.656;2022-07-10T16:14:45;18.60;99.90
26270;DHT22;15937;50.612;6.656;2022-07-10T16:18:47;18.80;99.90
26270;DHT22;15937;50.612;6.656;2022-07-10T16:23:03;18.80;99.90
26270;DHT22;15937;50.612;6.656;2022-07-10T16:27:05;18.90;99.90
26270;DHT22;15937;50.612;6.656;2022-07-10T16:31:10;18.80;99.90
26270;DHT22;15937;50.612;6.656;2022-07-10T16:35:14;18.80;99.90
26270;DHT22;15937;50.612;6.656;2022-07-10T16:39:30;18.80;99.90
26270;DHT22;15937;50.612;6.656;2022-07-10T16:43:36;18.90;99.90
26270;DHT22;15937;50.612;6.656;2022-07-10T16:47:38;18.80;99.90
26270;DHT22;15937;50.612;6.656;2022-07-10T16:51:40;18.70;99.90
26270;DHT22;15937;50.612;6.656;2022-07-10T16:55:45;18.80;99.90
26270;DHT22;15937;50.612;6.656;2022-07-10T16:59:47;18.80;99.90
26270;DHT22;15937;50.612;6.656;2022-07-10T17:03:51;18.70;99.90
26270;DHT22;15937;50.612;6.656;2022-07-10T17:07:54;18.70;99.90
26270;DHT22;15937;50.612;6.656;2022-07-10T17:11:56;18.70;99.90
26270;DHT22;15937;50.612;6.656;2022-07-10T17:15:58;18.70;99.90
26270;DHT22;15937;50.612;6.656;2022-07-10T17:20:00;18.70;99.90
26270;DHT22;15937;50.612;6.656;2022-07-10T17:24:01;18.70;99.90
26270;DHT22;15937;50.612;6.656;2022-07-10T17:28:03;18.70;99.90
26270;DHT22;15937;50.612;6.656;2022-07-10T17:32:05;18.50;99.90
26270;DHT22;15937;50.612;6.656;2022-07-10T17:36:07;18.60;99.90
26270;DHT22;15937;50.612;6.656;2022-07-10T17:40:10;18.60;99.90
26270;DHT22;15937;50.612;6.656;2022-07-10T17:44:14;18.60;99.90
26270;DHT22;15937;50.612;6.656;2022-07-10T17:48:17;18.60;99.90
26270;DHT22;15937;50.612;6.656;2022-07-10T17:52:19;18.60;99.90
26270;DHT22;15937;50.612;6.656;2022-07-10T17:56:21;18.60;99.90
26270;DHT22;15937;50.612;6.656;2022-07-10T18:00:23;18.50;99.90
26270;DHT22;15937;50.612;6.656;2022-07-10T18:04:25;18.50;99.90
26270;DHT22;15937;50.612;6.656;2022-07-10T18:08:27;18.50;99.90
26270;DHT22;15937;50.612;6.656;2022-07-10T18:12:29;18.50;99.90
26270;DHT22;15937;50.612;6.656;2022-07-10T18:16:31;18.50;99.90
26270;DHT22;15937;50.612;6.656;2022-07-10T18:20:33;18.40;99.90
26270;DHT22;15937;50.612;6.656;2022-07-10T18:24:37;18.40;99.90
26270;DHT22;15937;50.612;6.656;2022-07-10T18:28:39;18.40;99.90
26270;DHT22;15937;50.612;6.656;2022-07-10T18:32:41;18.50;99.90
26270;DHT22;15937;50.612;6.656;2022-07-10T18:37:02;18.40;99.90
26270;DHT22;15937;50.612;6.656;2022-07-10T18:41:05;18.40;99.90
26270;DHT22;15937;50.612;6.656;2022-07-10T18:45:07;18.30;99.90
26270;DHT22;15937;50.612;6.656;2022-07-10T18:49:09;18.40;99.90
26270;DHT22;15937;50.612;6.656;2022-07-10T18:53:11;18.30;99.90
26270;DHT22;15937;50.612;6.656;2022-07-10T18:57:13;18.30;99.90
26270;DHT22;15937;50.612;6.656;2022-07-10T19:01:17;18.30;99.90
26270;DHT22;15937;50.612;6.656;2022-07-10T19:05:22;18.30;99.90
26270;DHT22;15937;50.612;6.656;2022-07-10T19:09:24;18.30;99.90
26270;DHT22;15937;50.612;6.656;2022-07-10T19:13:29;18.30;99.90
26270;DHT22;15937;50.612;6.656;2022-07-10T19:17:31;18.30;99.90
26270;DHT22;15937;50.612;6.656;2022-07-10T19:21:33;18.20;99.90
26270;DHT22;15937;50.612;6.656;2022-07-10T19:25:35;18.20;99.90
26270;DHT22;15937;50.612;6.656;2022-07-10T19:29:38;18.20;99.90
26270;DHT22;15937;50.612;6.656;2022-07-10T19:33:40;18.20;99.90
26270;DHT22;15937;50.612;6.656;2022-07-10T19:37:43;18.10;99.90
26270;DHT22;15937;50.612;6.656;2022-07-10T19:41:45;18.10;99.90
26270;DHT22;15937;50.612;6.656;2022-07-10T19:45:47;18.10;99.90
26270;DHT22;15937;50.612;6.656;2022-07-10T19:49:49;18.20;99.90
26270;DHT22;15937;50.612;6.656;2022-07-10T19:53:56;18.10;99.90
26270;DHT22;15937;50.612;6.656;2022-07-10T19:58:06;18.10;99.90
26270;DHT22;15937;50.612;6.656;2022-07-10T20:02:08;18.20;99.90
26270;DHT22;15937;50.612;6.656;2022-07-10T20:06:12;18.20;99.90
26270;DHT22;15937;50.612;6.656;2022-07-10T20:10:14;18.20;99.90
26270;DHT22;15937;50.612;6.656;2022-07-10T20:14:17;18.10;99.90
26270;DHT22;15937;50.612;6.656;2022-07-10T20:18:20;18.10;99.90
26270;DHT22;15937;50.612;6.656;2022-07-10T20:22:26;18.10;99.90
26270;DHT22;15937;50.612;6.656;2022-07-10T20:26:28;18.10;99.90
26270;DHT22;15937;50.612;6.656;2022-07-10T20:30:30;18.30;99.90
26270;DHT22;15937;50.612;6.656;2022-07-10T20:34:33;18.30;99.90
26270;DHT22;15937;50.612;6.656;2022-07-10T20:38:39;18.30;99.90
26270;DHT22;15937;50.612;6.656;2022-07-10T20:42:42;18.40;99.90
26270;DHT22;15937;50.612;6.656;2022-07-10T20:46:50;18.40;99.90
26270;DHT22;15937;50.612;6.656;2022-07-10T20:50:55;18.30;99.90
26270;DHT22;15937;50.612;6.656;2022-07-10T20:54:57;18.40;99.90
26270;DHT22;15937;50.612;6.656;2022-07-10T20:59:01;18.20;99.90
26270;DHT22;15937;50.612;6.656;2022-07-10T21:03:07;18.10;99.90
26270;DHT22;15937;50.612;6.656;2022-07-10T21:07:11;18.10;99.90
26270;DHT22;15937;50.612;6.656;2022-07-10T21:11:19;18.00;99.90
26270;DHT22;15937;50.612;6.656;2022-07-10T21:15:21;18.10;99.90
26270;DHT22;15937;50.612;6.656;2022-07-10T21:19:23;18.10;99.90
26270;DHT22;15937;50.612;6.656;2022-07-10T21:23:25;18.00;99.90
26270;DHT22;15937;50.612;6.656;2022-07-10T21:27:27;18.10;99.90
26270;DHT22;15937;50.612;6.656;2022-07-10T21:31:29;18.10;99.90
26270;DHT22;15937;50.612;6.656;2022-07-10T21:35:31;18.10;99.90
26270;DHT22;15937;50.612;6.656;2022-07-10T21:39:33;18.00;99.90
26270;DHT22;15937;50.612;6.656;2022-07-10T21:43:35;18.00;99.90
26270;DHT22;15937;50.612;6.656;2022-07-10T21:47:36;17.90;99.90
26270;DHT22;15937;50.612;6.656;2022-07-10T21:51:38;17.90;99.90
26270;DHT22;15937;50.612;6.656;2022-07-10T21:55:40;18.00;99.90
26270;DHT22;15937;50.612;6.656;2022-07-10T21:59:42;18.00;99.90
26270;DHT22;15937;50.612;6.656;2022-07-10T22:03:43;18.00;99.90
26270;DHT22;15937;50.612;6.656;2022-07-10T22:07:46;18.00;99.90
26270;DHT22;15937;50.612;6.656;2022-07-10T22:11:48;17.90;99.90
26270;DHT22;15937;50.612;6.656;2022-07-10T22:15:50;18.00;99.90
26270;DHT22;15937;50.612;6.656;2022-07-10T22:19:51;18.00;99.90
26270;DHT22;15937;50.612;6.656;2022-07-10T22:23:53;17.90;99.90
26270;DHT22;15937;50.612;6.656;2022-07-10T22:27:55;18.10;99.90
26270;DHT22;15937;50.612;6.656;2022-07-10T22:31:57;18.10;99.90
26270;DHT22;15937;50.612;6.656;2022-07-10T22:35:58;18.00;99.90
26270;DHT22;15937;50.612;6.656;2022-07-10T22:40:00;18.00;99.90
26270;DHT22;15937;50.612;6.656;2022-07-10T22:44:02;17.80;99.90
26270;DHT22;15937;50.612;6.656;2022-07-10T22:48:04;17.90;99.90
26270;DHT22;15937;50.612;6.656;2022-07-10T22:52:06;17.90;99.90
26270;DHT22;15937;50.612;6.656;2022-07-10T22:56:09;17.90;99.90
26270;DHT22;15937;50.612;6.656;2022-07-10T23:00:11;17.80;99.90
26270;DHT22;15937;50.612;6.656;2022-07-10T23:04:14;17.80;99.90
26270;DHT22;15937;50.612;6.656;2022-07-10T23:08:19;17.80;99.90
26270;DHT22;15937;50.612;6.656;2022-07-10T23:12:35;17.90;99.90
26270;DHT22;15937;50.612;6.656;2022-07-10T23:16:37;17.70;99.90
26270;DHT22;15937;50.612;6.656;2022-07-10T23:20:40;17.80;99.90
26270;DHT22;15937;50.612;6.656;2022-07-10T23:24:41;17.70;99.90
26270;DHT22;15937;50.612;6.656;2022-07-10T23:28:43;17.70;99.90
26270;DHT22;15937;50.612;6.656;2022-07-10T23:32:48;17.50;99.90
26270;DHT22;15937;50.612;6.656;2022-07-10T23:36:50;17.50;99.90
26270;DHT22;15937;50.612;6.656;2022-07-10T23:40:52;17.50;99.90
26270;DHT22;15937;50.612;6.656;2022-07-10T23:45:08;17.60;99.90
26270;DHT22;15937;50.612;6.656;2022-07-10T23:49:09;17.50;99.90
26270;DHT22;15937;50.612;6.656;2022-07-10T23:53:30;17.40;99.90
26270;DHT22;15937;50.612;6.656;2022-07-10T23:57:32;17.40;99.90
